createdAt,value
2023-03-19T00:00:45.828Z,2.00
2023-03-19T00:03:13.483Z,1.80
2023-03-19T00:05:41.782Z,4.17
2023-03-19T00:08:09.330Z,3.80
2023-03-19T00:10:39.969Z,1.87
2023-03-19T00:13:07.588Z,3.87
2023-03-19T00:15:35.586Z,2.27
2023-03-19T00:18:03.342Z,1.43
2023-03-19T00:20:30.866Z,2.83
2023-03-19T00:22:58.496Z,4.83
2023-03-19T00:25:26.047Z,2.80
2023-03-19T00:27:53.738Z,1.57
2023-03-19T00:30:21.856Z,4.47
2023-03-19T00:32:49.473Z,3.63
2023-03-19T00:35:17.159Z,4.40
2023-03-19T00:37:44.725Z,4.33
2023-03-19T00:40:12.592Z,5.67
2023-03-19T00:42:40.194Z,7.00
2023-03-19T00:45:08.051Z,5.27
2023-03-19T00:47:35.639Z,5.33
2023-03-19T00:50:04.335Z,4.63
2023-03-19T00:52:32.155Z,2.90
2023-03-19T00:54:59.633Z,7.60
2023-03-19T00:57:27.220Z,3.13
2023-03-19T00:59:54.799Z,4.80
2023-03-19T01:02:22.355Z,4.77
2023-03-19T01:04:50.072Z,6.43
2023-03-19T01:07:17.778Z,5.77
2023-03-19T01:09:45.281Z,6.27
2023-03-19T01:12:12.856Z,6.17
2023-03-19T01:14:40.390Z,5.53
2023-03-19T01:17:07.994Z,6.60
2023-03-19T01:19:35.507Z,4.40
2023-03-19T01:22:03.065Z,8.73
2023-03-19T01:24:31.506Z,6.70
2023-03-19T01:26:59.079Z,6.90
2023-03-19T01:29:26.630Z,4.37
2023-03-19T01:31:54.138Z,5.53
2023-03-19T01:34:21.631Z,7.10
2023-03-19T01:36:49.392Z,8.23
2023-03-19T01:39:16.961Z,5.07
2023-03-19T01:41:44.519Z,4.83
2023-03-19T01:44:44.328Z,6.47
2023-03-19T01:47:20.164Z,4.67
2023-03-19T01:49:53.948Z,9.00
2023-03-19T01:52:22.270Z,5.73
2023-03-19T01:54:49.875Z,5.93
2023-03-19T01:57:17.800Z,4.93
2023-03-19T01:59:49.694Z,6.17
2023-03-19T02:02:22.021Z,4.97
2023-03-19T02:04:51.733Z,3.83
2023-03-19T02:07:19.738Z,6.20
2023-03-19T02:09:47.550Z,4.23
2023-03-19T02:12:15.417Z,3.70
2023-03-19T02:14:42.990Z,4.50
2023-03-19T02:17:10.622Z,4.77
2023-03-19T02:19:47.877Z,6.80
2023-03-19T02:22:17.413Z,4.13
2023-03-19T02:24:56.986Z,5.00
2023-03-19T02:27:24.528Z,5.47
2023-03-19T02:29:52.080Z,5.50
2023-03-19T02:32:19.630Z,9.83
2023-03-19T02:34:47.174Z,4.17
2023-03-19T02:37:17.887Z,4.77
2023-03-19T02:40:00.693Z,6.87
2023-03-19T02:42:29.630Z,4.83
2023-03-19T02:44:57.825Z,4.87
2023-03-19T02:47:25.955Z,4.20
2023-03-19T02:49:53.724Z,5.63
2023-03-19T02:52:21.290Z,6.67
2023-03-19T02:54:48.861Z,6.27
2023-03-19T02:57:16.523Z,9.70
2023-03-19T02:59:44.048Z,8.87
2023-03-19T03:02:11.840Z,6.87
2023-03-19T03:04:39.429Z,7.33
2023-03-19T03:07:07.028Z,8.03
2023-03-19T03:09:34.728Z,8.20
2023-03-19T03:12:02.417Z,7.53
2023-03-19T03:14:29.958Z,6.07
2023-03-19T03:17:00.664Z,6.00
2023-03-19T03:19:28.211Z,5.50
2023-03-19T03:21:55.742Z,6.53
2023-03-19T03:24:23.298Z,9.83
2023-03-19T03:26:50.796Z,6.23
2023-03-19T03:29:18.358Z,5.60
2023-03-19T03:31:45.872Z,6.57
2023-03-19T03:34:13.461Z,6.27
2023-03-19T03:36:43.987Z,11.77
2023-03-19T03:39:11.602Z,5.43
2023-03-19T03:41:39.084Z,9.17
2023-03-19T03:44:06.644Z,6.43
2023-03-19T03:46:34.139Z,6.43
2023-03-19T03:49:01.821Z,6.53
2023-03-19T03:51:29.356Z,8.47
2023-03-19T03:53:56.898Z,7.60
2023-03-19T03:56:24.386Z,6.60
2023-03-19T03:58:51.963Z,6.57
2023-03-19T04:01:19.697Z,5.27
2023-03-19T04:03:47.236Z,8.83
2023-03-19T04:06:16.382Z,5.30
2023-03-19T04:08:44.028Z,6.73
2023-03-19T04:11:11.633Z,6.50
2023-03-19T04:13:39.297Z,5.37
2023-03-19T04:16:07.406Z,7.63
2023-03-19T04:18:35.165Z,10.60
2023-03-19T04:21:02.896Z,6.93
2023-03-19T04:23:30.502Z,5.90
2023-03-19T04:26:01.742Z,6.80
2023-03-19T04:28:29.615Z,4.40
2023-03-19T04:31:01.094Z,9.03
2023-03-19T04:33:29.010Z,5.73
2023-03-19T04:35:56.740Z,4.80
2023-03-19T04:38:24.601Z,11.23
2023-03-19T04:40:52.076Z,7.43
2023-03-19T04:43:19.870Z,5.93
2023-03-19T04:45:47.453Z,5.73
2023-03-19T04:48:15.033Z,4.23
2023-03-19T04:50:42.535Z,4.30
2023-03-19T04:53:10.061Z,5.33
2023-03-19T04:55:37.647Z,4.10
2023-03-19T04:58:05.332Z,6.00
2023-03-19T05:00:33.120Z,5.27
2023-03-19T05:03:00.966Z,5.23
2023-03-19T05:05:28.517Z,7.33
2023-03-19T05:07:56.073Z,4.67
2023-03-19T05:10:23.879Z,5.80
2023-03-19T05:12:51.406Z,4.87
2023-03-19T05:15:18.938Z,3.57
2023-03-19T05:17:46.526Z,3.60
2023-03-19T05:20:14.023Z,3.90
2023-03-19T05:22:41.574Z,4.73
2023-03-19T05:25:09.134Z,4.10
2023-03-19T05:27:36.739Z,6.03
2023-03-19T05:30:04.870Z,4.33
2023-03-19T05:32:32.451Z,5.87
2023-03-19T05:35:00.115Z,5.57
2023-03-19T05:37:27.692Z,5.70
2023-03-19T05:39:55.170Z,4.10
2023-03-19T05:42:22.758Z,5.13
2023-03-19T05:44:50.226Z,5.03
2023-03-19T05:47:18.036Z,8.60
2023-03-19T05:49:45.545Z,6.77
2023-03-19T05:52:13.039Z,6.33
2023-03-19T05:54:40.597Z,4.17
2023-03-19T05:57:08.531Z,6.73
2023-03-19T05:59:36.129Z,6.97
2023-03-19T06:02:03.694Z,6.03
2023-03-19T06:04:31.276Z,4.80
2023-03-19T06:06:58.802Z,7.83
2023-03-19T06:09:26.440Z,5.37
2023-03-19T06:11:53.921Z,7.27
2023-03-19T06:14:21.469Z,5.93
2023-03-19T06:16:48.950Z,5.97
2023-03-19T06:19:16.522Z,9.73
2023-03-19T06:21:44.047Z,5.60
2023-03-19T06:24:11.619Z,7.90
2023-03-19T06:26:39.271Z,7.00
2023-03-19T06:29:06.816Z,4.40
2023-03-19T06:31:34.483Z,4.43
2023-03-19T06:34:02.037Z,5.30
2023-03-19T06:36:29.573Z,7.07
2023-03-19T06:38:57.182Z,6.70
2023-03-19T06:41:24.672Z,5.60
2023-03-19T06:43:52.225Z,5.10
2023-03-19T06:46:19.848Z,6.30
2023-03-19T06:48:47.464Z,5.63
2023-03-19T06:51:14.978Z,6.13
2023-03-19T06:53:42.503Z,5.53
2023-03-19T06:56:09.994Z,6.83
2023-03-19T06:58:37.573Z,5.80
2023-03-19T07:01:05.237Z,8.97
2023-03-19T07:03:32.822Z,7.73
2023-03-19T07:06:00.265Z,9.53
2023-03-19T07:08:28.506Z,7.30
2023-03-19T07:10:56.707Z,5.90
2023-03-19T07:13:24.393Z,5.80
2023-03-19T07:15:51.841Z,6.07
2023-03-19T07:18:19.373Z,7.53
2023-03-19T07:20:46.832Z,6.63
2023-03-19T07:23:14.412Z,6.17
2023-03-19T07:25:42.057Z,4.80
2023-03-19T07:28:09.597Z,6.40
2023-03-19T07:30:37.052Z,5.67
2023-03-19T07:33:05.212Z,7.67
2023-03-19T07:35:32.733Z,6.70
2023-03-19T07:38:00.513Z,9.40
2023-03-19T07:40:28.014Z,8.60
2023-03-19T07:42:55.634Z,5.73
2023-03-19T07:45:23.246Z,5.60
2023-03-19T07:47:51.182Z,6.27
2023-03-19T07:50:18.921Z,5.17
2023-03-19T07:52:49.938Z,4.87
2023-03-19T07:55:17.596Z,4.10
2023-03-19T07:57:45.074Z,4.33
2023-03-19T08:00:12.962Z,4.40
2023-03-19T08:02:40.717Z,4.80
2023-03-19T08:05:08.405Z,6.27
2023-03-19T08:07:36.467Z,4.57
2023-03-19T08:10:05.132Z,4.40
2023-03-19T08:12:32.658Z,6.80
2023-03-19T08:15:00.200Z,6.57
2023-03-19T08:17:27.701Z,6.40
2023-03-19T08:19:55.232Z,5.73
2023-03-19T08:22:22.767Z,4.40
2023-03-19T08:24:50.345Z,5.00
2023-03-19T08:27:17.998Z,4.00
2023-03-19T08:29:45.754Z,5.20
2023-03-19T08:32:13.392Z,5.83
2023-03-19T08:34:40.939Z,5.70
2023-03-19T08:37:08.517Z,4.70
2023-03-19T08:39:36.069Z,5.57
2023-03-19T08:42:03.556Z,5.90
2023-03-19T08:44:31.086Z,6.70
2023-03-19T08:46:58.580Z,4.47
2023-03-19T08:49:26.215Z,6.07
2023-03-19T08:51:53.720Z,6.27
2023-03-19T08:54:22.908Z,5.33
2023-03-19T08:56:50.678Z,5.37
2023-03-19T08:59:18.322Z,4.67
2023-03-19T09:01:45.967Z,5.47
2023-03-19T09:04:13.585Z,4.00
2023-03-19T09:06:41.090Z,4.53
2023-03-19T09:09:08.681Z,2.93
2023-03-19T09:11:36.252Z,3.33
2023-03-19T09:14:04.067Z,4.00
2023-03-19T09:16:31.711Z,3.93
2023-03-19T09:18:59.546Z,3.87
2023-03-19T09:21:27.077Z,5.93
2023-03-19T09:23:54.649Z,4.97
2023-03-19T09:26:22.282Z,4.60
2023-03-19T09:28:49.984Z,4.73
2023-03-19T09:31:17.494Z,4.40
2023-03-19T09:33:45.124Z,6.00
2023-03-19T09:36:12.672Z,5.30
2023-03-19T09:38:40.272Z,7.07
2023-03-19T09:41:10.615Z,5.97
2023-03-19T09:43:43.502Z,6.37
2023-03-19T09:46:31.383Z,7.90
2023-03-19T09:49:05.250Z,6.50
2023-03-19T09:51:39.941Z,6.87
2023-03-19T09:54:09.270Z,7.13
2023-03-19T09:56:36.827Z,6.70
2023-03-19T09:59:04.350Z,5.80
2023-03-19T10:01:36.881Z,5.53
2023-03-19T10:04:16.748Z,5.57
2023-03-19T10:06:44.367Z,6.87
2023-03-19T10:09:35.196Z,5.43
2023-03-19T10:12:02.722Z,6.33
2023-03-19T10:14:39.128Z,7.50
2023-03-19T10:17:08.046Z,5.90
2023-03-19T10:19:45.736Z,4.93
2023-03-19T10:22:19.983Z,4.93
2023-03-19T10:24:48.131Z,6.07
2023-03-19T10:27:16.999Z,5.20
2023-03-19T10:29:44.610Z,5.37
2023-03-19T10:32:15.167Z,6.17
2023-03-19T10:34:43.731Z,5.00
2023-03-19T10:37:14.354Z,6.30
2023-03-19T10:39:43.626Z,5.93
2023-03-19T10:42:31.968Z,5.67
2023-03-19T10:45:10.525Z,5.77
2023-03-19T10:47:41.734Z,5.40
2023-03-19T10:50:15.635Z,5.30
2023-03-19T10:52:43.580Z,4.63
2023-03-19T10:55:18.392Z,4.90
2023-03-19T10:57:49.477Z,3.03
2023-03-19T11:00:17.408Z,3.70
2023-03-19T11:02:47.630Z,2.80
2023-03-19T11:05:15.263Z,4.17
2023-03-19T11:07:42.836Z,4.73
2023-03-19T11:10:15.601Z,4.07
2023-03-19T11:12:47.895Z,2.73
2023-03-19T11:15:20.082Z,2.87
2023-03-19T11:17:56.468Z,6.60
2023-03-19T11:20:27.945Z,3.60
2023-03-19T11:22:57.092Z,5.37
2023-03-19T11:25:24.721Z,2.63
2023-03-19T11:27:59.434Z,4.00
2023-03-19T11:30:29.191Z,3.87
2023-03-19T11:33:15.551Z,3.20
2023-03-19T11:35:50.037Z,3.67
2023-03-19T11:38:25.785Z,4.37
2023-03-19T11:41:01.635Z,4.93
2023-03-19T11:43:45.050Z,3.37
2023-03-19T11:46:27.700Z,4.00
2023-03-19T11:49:09.555Z,4.07
2023-03-19T11:51:39.902Z,4.23
2023-03-19T11:54:30.483Z,4.20
2023-03-19T11:57:04.629Z,4.97
2023-03-19T11:59:37.923Z,3.83
2023-03-19T12:02:24.102Z,2.97
2023-03-19T12:04:51.685Z,4.90
2023-03-19T12:07:22.303Z,2.80
2023-03-19T12:09:52.736Z,4.40
2023-03-19T12:12:27.198Z,3.90
2023-03-19T12:15:09.783Z,4.10
2023-03-19T12:17:52.601Z,4.30
2023-03-19T12:20:49.268Z,6.03
2023-03-19T12:23:36.165Z,4.30
2023-03-19T12:26:05.276Z,4.87
2023-03-19T12:28:39.602Z,4.77
2023-03-19T12:31:10.305Z,3.70
2023-03-19T12:33:49.480Z,4.67
2023-03-19T12:36:20.805Z,2.27
2023-03-19T12:39:11.408Z,3.60
2023-03-19T12:41:42.133Z,3.53
2023-03-19T12:44:09.701Z,3.53
2023-03-19T12:46:39.937Z,2.67
2023-03-19T12:49:11.714Z,4.73
2023-03-19T12:51:41.196Z,3.97
2023-03-19T12:54:23.935Z,3.50
2023-03-19T12:57:00.681Z,3.10
2023-03-19T12:59:38.648Z,4.33
2023-03-19T13:02:25.179Z,5.03
2023-03-19T13:05:02.040Z,3.47
2023-03-19T13:07:33.730Z,4.83
2023-03-19T13:10:07.234Z,4.80
2023-03-19T13:12:36.596Z,4.07
2023-03-19T13:15:10.029Z,3.67
2023-03-19T13:17:42.868Z,4.77
2023-03-19T13:20:19.463Z,3.17
2023-03-19T13:22:57.578Z,2.73
2023-03-19T13:25:28.253Z,3.97
2023-03-19T13:27:56.392Z,5.27
2023-03-19T13:30:24.492Z,3.93
2023-03-19T13:32:53.949Z,4.33
2023-03-19T13:35:27.337Z,6.40
2023-03-19T13:38:00.470Z,4.27
2023-03-19T13:40:42.302Z,5.60
2023-03-19T13:43:30.149Z,4.40
2023-03-19T13:46:13.076Z,4.60
2023-03-19T13:48:46.411Z,4.00
2023-03-19T13:51:20.072Z,4.77
2023-03-19T13:54:05.902Z,6.30
2023-03-19T13:56:33.741Z,6.00
2023-03-19T13:59:16.298Z,6.23
2023-03-19T14:01:44.649Z,6.30
2023-03-19T14:04:32.259Z,5.00
2023-03-19T14:07:09.102Z,5.90
2023-03-19T14:09:41.583Z,5.87
2023-03-19T14:12:18.299Z,6.10
2023-03-19T14:15:04.821Z,6.07
2023-03-19T14:17:33.883Z,5.30
2023-03-19T14:20:08.468Z,8.77
2023-03-19T14:22:36.785Z,5.20
2023-03-19T14:25:05.972Z,6.10
2023-03-19T14:27:36.272Z,8.67
2023-03-19T14:30:09.239Z,5.70
2023-03-19T14:32:38.583Z,6.17
2023-03-19T14:35:06.913Z,6.97
2023-03-19T14:37:37.567Z,6.47
2023-03-19T14:40:23.422Z,6.90
2023-03-19T14:42:58.290Z,4.67
2023-03-19T14:45:44.484Z,5.53
2023-03-19T14:48:25.383Z,5.07
2023-03-19T14:50:55.929Z,6.03
2023-03-19T14:53:26.592Z,7.97
2023-03-19T14:55:54.172Z,3.87
2023-03-19T14:58:22.011Z,5.47
2023-03-19T15:00:50.597Z,3.57
2023-03-19T15:03:31.567Z,3.37
2023-03-19T15:06:00.609Z,5.90
2023-03-19T15:08:30.651Z,3.83
2023-03-19T15:11:02.502Z,7.27
2023-03-19T15:13:48.928Z,7.10
2023-03-19T15:16:28.836Z,7.57
2023-03-19T15:18:56.416Z,9.33
2023-03-19T15:21:23.935Z,8.10
2023-03-19T15:23:51.533Z,4.53
2023-03-19T15:26:30.603Z,7.23
2023-03-19T15:28:58.171Z,6.37
2023-03-19T15:31:49.530Z,4.27
2023-03-19T15:34:19.865Z,6.43
2023-03-19T15:36:47.702Z,5.63
2023-03-19T15:39:17.749Z,9.40
2023-03-19T15:41:46.915Z,5.57
2023-03-19T15:44:17.957Z,4.63
2023-03-19T15:46:46.655Z,5.33
2023-03-19T15:49:14.133Z,6.83
2023-03-19T15:51:42.301Z,4.50
2023-03-19T15:54:09.866Z,4.53
2023-03-19T15:56:37.833Z,5.83
2023-03-19T15:59:05.429Z,7.50
2023-03-19T16:01:33.998Z,4.83
2023-03-19T16:04:06.511Z,3.47
2023-03-19T16:06:37.794Z,6.43
2023-03-19T16:09:24.802Z,5.23
2023-03-19T16:11:52.732Z,5.20
2023-03-19T16:14:35.842Z,6.80
2023-03-19T16:17:10.322Z,6.17
2023-03-19T16:19:38.768Z,3.47
2023-03-19T16:22:16.791Z,5.50
2023-03-19T16:24:46.732Z,5.57
2023-03-19T16:27:15.617Z,7.27
2023-03-19T16:29:44.623Z,5.47
2023-03-19T16:32:12.154Z,4.87
2023-03-19T16:34:43.494Z,4.37
2023-03-19T16:37:46.767Z,6.10
2023-03-19T16:40:14.368Z,7.63
2023-03-19T16:42:42.355Z,6.97
2023-03-19T16:45:16.145Z,7.57
2023-03-19T16:47:44.545Z,6.20
2023-03-19T16:50:14.630Z,7.70
2023-03-19T16:52:43.402Z,7.20
2023-03-19T16:55:24.834Z,5.20
2023-03-19T16:57:56.520Z,5.70
2023-03-19T17:00:24.711Z,5.63
2023-03-19T17:02:55.528Z,4.83
2023-03-19T17:05:23.481Z,5.43
2023-03-19T17:07:51.055Z,5.50
2023-03-19T17:10:19.747Z,4.53
2023-03-19T17:12:48.876Z,5.73
2023-03-19T17:15:23.015Z,9.90
2023-03-19T17:17:51.213Z,6.37
2023-03-19T17:20:28.195Z,6.90
2023-03-19T17:22:55.719Z,8.73
2023-03-19T17:25:23.863Z,9.20
2023-03-19T17:27:51.426Z,8.63
2023-03-19T17:30:19.096Z,9.30
2023-03-19T17:32:47.962Z,8.17
2023-03-19T17:35:19.656Z,8.73
2023-03-19T17:37:47.559Z,10.77
2023-03-19T17:40:25.861Z,8.43
2023-03-19T17:42:54.462Z,10.20
2023-03-19T17:45:25.519Z,11.10
2023-03-19T17:47:54.183Z,8.60
2023-03-19T17:50:23.275Z,10.67
2023-03-19T17:52:51.055Z,7.67
2023-03-19T17:55:20.188Z,8.90
2023-03-19T17:57:47.873Z,8.10
2023-03-19T18:00:15.759Z,8.47
2023-03-19T18:02:44.149Z,10.57
2023-03-19T18:05:15.617Z,16.00
2023-03-19T18:07:43.741Z,15.03
2023-03-19T18:10:16.013Z,10.03
2023-03-19T18:12:43.938Z,13.93
2023-03-19T18:15:12.593Z,8.23
2023-03-19T18:17:42.132Z,8.20
2023-03-19T18:20:13.650Z,5.30
2023-03-19T18:22:41.227Z,11.97
2023-03-19T18:25:16.800Z,13.40
2023-03-19T18:27:44.845Z,13.93
2023-03-19T18:30:13.715Z,8.43
2023-03-19T18:32:41.680Z,7.23
2023-03-19T18:35:15.662Z,15.30
2023-03-19T18:37:44.173Z,6.07
2023-03-19T18:40:14.446Z,10.10
2023-03-19T18:42:42.109Z,12.40
2023-03-19T18:45:10.230Z,10.53
2023-03-19T18:47:37.895Z,8.40
2023-03-19T18:50:15.305Z,10.47
2023-03-19T18:52:43.004Z,7.90
2023-03-19T18:55:11.533Z,13.73
2023-03-19T18:57:47.866Z,10.83
2023-03-19T19:00:21.718Z,8.33
2023-03-19T19:02:49.844Z,10.60
2023-03-19T19:05:18.508Z,13.33
2023-03-19T19:07:46.148Z,16.27
2023-03-19T19:10:13.790Z,11.07
2023-03-19T19:12:42.715Z,11.20
2023-03-19T19:15:28.754Z,13.37
2023-03-19T19:17:56.826Z,15.43
2023-03-19T19:20:25.727Z,18.23
2023-03-19T19:22:53.611Z,19.53
2023-03-19T19:25:30.485Z,16.97
2023-03-19T19:28:14.202Z,20.27
2023-03-19T19:30:41.838Z,22.57
2023-03-19T19:33:16.182Z,21.83
2023-03-19T19:35:43.845Z,20.07
2023-03-19T19:38:11.355Z,18.57
2023-03-19T19:40:39.393Z,19.13
2023-03-19T19:43:11.753Z,20.83
2023-03-19T19:45:39.641Z,22.53
2023-03-19T19:48:13.841Z,27.40
2023-03-19T19:50:41.444Z,27.33
2023-03-19T19:53:08.929Z,26.83
2023-03-19T19:55:36.842Z,29.10
2023-03-19T19:58:07.436Z,28.77
2023-03-19T20:00:36.075Z,28.17
2023-03-19T20:03:03.628Z,31.37
2023-03-19T20:05:33.285Z,29.77
2023-03-19T20:08:02.230Z,32.13
2023-03-19T20:10:30.997Z,31.37
2023-03-19T20:13:01.623Z,35.07
2023-03-19T20:15:30.859Z,34.80
2023-03-19T20:17:58.394Z,36.80
2023-03-19T20:20:27.673Z,33.07
2023-03-19T20:22:55.978Z,38.57
2023-03-19T20:25:24.583Z,31.17
2023-03-19T20:27:53.467Z,31.90
2023-03-19T20:30:21.117Z,30.77
2023-03-19T20:32:49.089Z,32.07
2023-03-19T20:35:18.147Z,30.47
2023-03-19T20:37:45.716Z,31.40
2023-03-19T20:40:13.756Z,27.77
2023-03-19T20:42:41.854Z,33.07
2023-03-19T20:45:14.924Z,29.03
2023-03-19T20:47:42.528Z,28.67
2023-03-19T20:50:36.477Z,30.03
2023-03-19T20:53:04.103Z,24.77
2023-03-19T20:55:32.950Z,26.50
2023-03-19T20:58:01.416Z,25.47
2023-03-19T21:00:30.191Z,23.73
2023-03-19T21:02:58.554Z,31.77
2023-03-19T21:05:30.684Z,27.83
2023-03-19T21:07:58.276Z,25.73
2023-03-19T21:10:37.668Z,25.37
2023-03-19T21:13:05.548Z,29.07
2023-03-19T21:15:33.416Z,27.33
2023-03-19T21:18:01.028Z,29.37
2023-03-19T21:20:29.941Z,25.87
2023-03-19T21:23:09.296Z,27.83
2023-03-19T21:25:37.238Z,24.13
2023-03-19T21:28:07.209Z,26.27
2023-03-19T21:30:37.716Z,24.83
2023-03-19T21:33:05.255Z,27.30
2023-03-19T21:35:32.917Z,25.33
2023-03-19T21:38:00.647Z,25.07
2023-03-19T21:40:29.818Z,19.60
2023-03-19T21:42:58.669Z,17.03
2023-03-19T21:45:30.440Z,15.47
2023-03-19T21:48:10.059Z,13.87
2023-03-19T21:50:37.552Z,14.90
2023-03-19T21:53:05.027Z,10.63
2023-03-19T21:55:33.607Z,15.43
2023-03-19T21:58:01.234Z,10.33
2023-03-19T22:00:30.005Z,10.13
2023-03-19T22:02:57.497Z,10.97
2023-03-19T22:05:29.091Z,11.30
2023-03-19T22:07:56.825Z,10.30
2023-03-19T22:10:25.436Z,9.73
2023-03-19T22:12:53.242Z,11.50
2023-03-19T22:15:20.726Z,9.73
2023-03-19T22:17:49.020Z,10.03
2023-03-19T22:20:17.359Z,11.13
2023-03-19T22:22:45.332Z,12.10
2023-03-19T22:25:13.679Z,10.83
2023-03-19T22:27:42.206Z,11.43
2023-03-19T22:30:33.203Z,10.33
2023-03-19T22:33:01.428Z,10.47
2023-03-19T22:35:29.198Z,10.80
2023-03-19T22:37:56.807Z,8.57
2023-03-19T22:40:26.466Z,11.60
2023-03-19T22:42:54.100Z,10.03
2023-03-19T22:45:26.853Z,8.57
2023-03-19T22:47:55.029Z,12.13
2023-03-19T22:50:24.369Z,9.40
2023-03-19T22:52:52.587Z,11.50
2023-03-19T22:55:20.288Z,10.80
2023-03-19T22:57:48.220Z,10.03
2023-03-19T23:00:18.045Z,9.57
2023-03-19T23:02:46.677Z,12.73
2023-03-19T23:05:29.161Z,11.70
2023-03-19T23:07:56.822Z,11.23
2023-03-19T23:10:25.431Z,11.53
2023-03-19T23:12:53.571Z,10.77
2023-03-19T23:15:21.371Z,11.40
2023-03-19T23:17:49.952Z,12.67
2023-03-19T23:20:20.997Z,11.60
2023-03-19T23:22:48.626Z,9.83
2023-03-19T23:25:18.672Z,10.03
2023-03-19T23:27:46.659Z,10.10
2023-03-19T23:30:17.294Z,11.67
2023-03-19T23:32:44.892Z,10.03
2023-03-19T23:35:19.893Z,9.67
2023-03-19T23:37:47.640Z,10.13
2023-03-19T23:40:18.502Z,10.87
2023-03-19T23:42:47.574Z,9.40
2023-03-19T23:45:38.294Z,9.70
2023-03-19T23:48:13.684Z,11.60
2023-03-19T23:50:41.216Z,9.90
2023-03-19T23:53:16.007Z,11.00
2023-03-19T23:55:43.553Z,9.87
2023-03-19T23:58:11.058Z,10.17
